Torino / Caselle International Airport LIMF

Flugplatz Daten

Name: Torino / Caselle International Airport

Ident: LIMF

Lat: 45,20080185

Long: 7,64963007

Platzhöhe: 989 ft

IataCode: TRN

City: Torino

Homepage: http://www.turin-airport.com/IT/voli/default.php

Metar

2021/12/03 23:20
LIMF 032320Z VRB01KT CAVOK M00/M06 Q1014

Taf

2021/12/03 18:00
TAF LIMF 031700Z 0318/0418 VRB05KT CAVOK
Gewünschte Webcam nicht vorhanden? Dann fügen Sie eine hinzu. Sie wird dann so schnell wie möglich freigeschaltet
Url: Title: